Time;durP1;ratioP1;P1;durP2;ratioP2;P2;SDS_P1;SDS_P2;PMS_P1;PMS_P2;Temp;Humidity;BMP_temperature;BMP_pressure;BME280_temperature;BME280_humidity;BME280_pressure;Samples;Min_cycle;Max_cycle;Signal;HPM_P1;HPM_P2
2023/08/05 00:01:39;;;;;;;4.37;2.10;;;;;;;;;;738825;187;910022;-63
2023/08/05 00:04:05;;;;;;;6.03;2.87;;;;;;;;;;739517;187;896152;-64
2023/08/05 00:06:30;;;;;;;7.20;3.20;;;;;;;;;;741079;187;816758;-68
2023/08/05 00:08:56;;;;;;;4.33;2.80;;;;;;;;;;742996;187;818777;-60
2023/08/05 00:11:22;;;;;;;10.03;2.93;;;;;;;;;;737808;187;919851;-60
2023/08/05 00:13:48;;;;;;;8.53;2.93;;;;;;;;;;742305;188;860517;-70
2023/08/05 00:16:14;;;;;;;5.27;2.57;;;;;;;;;;750791;187;918725;-62
2023/08/05 00:18:40;;;;;;;6.50;2.80;;;;;;;;;;741261;185;917922;-62
2023/08/05 00:21:06;;;;;;;6.43;2.90;;;;;;;;;;739071;187;919864;-63
2023/08/05 00:23:31;;;;;;;7.83;3.50;;;;;;;;;;743448;187;917904;-71
2023/08/05 00:25:57;;;;;;;8.90;3.43;;;;;;;;;;738224;187;919020;-71
2023/08/05 00:28:23;;;;;;;8.25;3.30;;;;;;;;;;738745;188;918909;-63
2023/08/05 00:30:49;;;;;;;7.37;4.07;;;;;;;;;;744406;188;919213;-64
2023/08/05 00:33:15;;;;;;;7.70;3.60;;;;;;;;;;734352;188;912240;-72
2023/08/05 00:35:41;;;;;;;8.73;3.60;;;;;;;;;;737404;187;919164;-72
2023/08/05 00:38:06;;;;;;;12.03;4.30;;;;;;;;;;740364;188;918470;-71
2023/08/05 00:40:32;;;;;;;6.40;3.50;;;;;;;;;;741314;188;919096;-71
2023/08/05 00:42:58;;;;;;;8.50;3.60;;;;;;;;;;740959;187;918861;-73
2023/08/05 00:45:24;;;;;;;11.27;3.77;;;;;;;;;;742478;188;919381;-73
2023/08/05 00:47:50;;;;;;;9.57;3.70;;;;;;;;;;743077;187;816187;-73
2023/08/05 00:50:16;;;;;;;7.23;3.10;;;;;;;;;;744120;187;918329;-74
2023/08/05 00:52:41;;;;;;;6.30;3.47;;;;;;;;;;736811;188;942691;-65
2023/08/05 00:55:07;;;;;;;8.43;4.90;;;;;;;;;;745418;187;819282;-67
2023/08/05 00:57:33;;;;;;;7.97;4.17;;;;;;;;;;738349;188;943000;-66
2023/08/05 00:59:59;;;;;;;9.60;4.30;;;;;;;;;;740345;187;924146;-75
2023/08/05 01:02:25;;;;;;;7.00;4.00;;;;;;;;;;739834;187;918755;-75
2023/08/05 01:04:51;;;;;;;10.77;4.40;;;;;;;;;;746014;184;918377;-74
2023/08/05 01:07:17;;;;;;;10.10;3.97;;;;;;;;;;736729;188;931795;-67
2023/08/05 01:09:42;;;;;;;6.10;3.93;;;;;;;;;;738499;187;896769;-73
2023/08/05 01:12:08;;;;;;;8.17;4.10;;;;;;;;;;744671;186;917824;-67
2023/08/05 01:14:34;;;;;;;9.53;5.40;;;;;;;;;;740011;187;918683;-65
2023/08/05 01:17:01;;;;;;;6.47;3.20;;;;;;;;;;737531;187;918440;-74
2023/08/05 01:19:26;;;;;;;8.30;4.17;;;;;;;;;;745147;187;916815;-73
2023/08/05 01:22:07;;;;;;;16.17;5.00;;;;;;;;;;739257;187;918950;-74
2023/08/05 01:24:36;;;;;;;15.80;4.60;;;;;;;;;;739665;187;919609;-67
2023/08/05 01:27:02;;;;;;;9.70;4.07;;;;;;;;;;738021;187;880393;-74
2023/08/05 01:29:28;;;;;;;7.67;4.23;;;;;;;;;;738824;187;919035;-67
2023/08/05 01:31:54;;;;;;;11.30;4.77;;;;;;;;;;743271;187;908566;-66
2023/08/05 01:34:20;;;;;;;8.77;5.30;;;;;;;;;;738110;187;919792;-67
2023/08/05 03:14:44;;;;;;;13.97;7.67;;;;;;;;;;714780;180;689270;-82
2023/08/05 03:17:10;;;;;;;15.10;7.67;;;;;;;;;;760627;183;662897;-83
2023/08/05 03:19:36;;;;;;;14.53;7.47;;;;;;;;;;754877;181;703328;-81
2023/08/05 03:22:02;;;;;;;18.97;6.80;;;;;;;;;;745186;185;987833;-81
2023/08/05 03:24:28;;;;;;;12.93;7.17;;;;;;;;;;750886;186;654619;-82
2023/08/05 03:26:54;;;;;;;17.40;7.53;;;;;;;;;;746076;185;687908;-82
2023/08/05 03:29:20;;;;;;;13.17;6.33;;;;;;;;;;751513;185;628951;-80
2023/08/05 03:31:45;;;;;;;11.37;7.30;;;;;;;;;;750880;185;647517;-82
2023/08/05 03:34:11;;;;;;;10.90;7.13;;;;;;;;;;747285;187;657459;-81
2023/08/05 03:36:37;;;;;;;14.90;6.80;;;;;;;;;;752931;185;639665;-82
2023/08/05 03:39:03;;;;;;;11.60;6.73;;;;;;;;;;751760;185;636023;-81
2023/08/05 03:41:29;;;;;;;11.00;7.00;;;;;;;;;;749012;187;623652;-82
2023/08/05 03:43:55;;;;;;;11.77;6.60;;;;;;;;;;749481;186;616305;-81
2023/08/05 03:46:21;;;;;;;9.53;5.90;;;;;;;;;;747879;185;637292;-80
2023/08/05 03:48:48;;;;;;;10.93;6.53;;;;;;;;;;751582;185;675928;-81
2023/08/05 03:51:14;;;;;;;9.07;5.53;;;;;;;;;;749867;185;663777;-80
2023/08/05 03:53:38;;;;;;;10.90;5.80;;;;;;;;;;747652;184;626397;-80
2023/08/05 03:56:05;;;;;;;12.57;5.87;;;;;;;;;;751906;183;629138;-81
2023/08/05 03:58:30;;;;;;;9.20;6.17;;;;;;;;;;751650;185;630378;-80
2023/08/05 04:00:56;;;;;;;7.93;5.53;;;;;;;;;;749787;185;828794;-81
2023/08/05 04:03:22;;;;;;;11.40;6.13;;;;;;;;;;744755;186;661310;-81
2023/08/05 04:05:47;;;;;;;12.93;6.40;;;;;;;;;;753190;185;681082;-82
2023/08/05 04:08:13;;;;;;;12.23;6.50;;;;;;;;;;744107;186;644137;-81
2023/08/05 04:10:40;;;;;;;11.63;6.40;;;;;;;;;;748993;185;615377;-79
2023/08/05 04:13:05;;;;;;;9.40;5.10;;;;;;;;;;751088;186;647577;-81
2023/08/05 04:15:33;;;;;;;9.13;5.80;;;;;;;;;;745046;185;624903;-80
2023/08/05 04:17:59;;;;;;;7.50;4.57;;;;;;;;;;748354;185;640245;-81
2023/08/05 04:20:23;;;;;;;9.07;6.60;;;;;;;;;;751411;186;620178;-81
2023/08/05 04:22:49;;;;;;;13.67;7.17;;;;;;;;;;749545;185;674064;-81
2023/08/05 04:25:15;;;;;;;10.40;6.00;;;;;;;;;;737971;185;2500853;-80
2023/08/05 04:27:57;;;;;;;9.93;6.10;;;;;;;;;;757065;185;625159;-84
2023/08/05 04:30:25;;;;;;;9.90;6.40;;;;;;;;;;739400;188;623131;-80
2023/08/05 04:32:50;;;;;;;10.90;6.90;;;;;;;;;;752791;185;966887;-79
2023/08/05 04:35:16;;;;;;;11.27;6.23;;;;;;;;;;747864;185;883715;-80
2023/08/05 04:37:42;;;;;;;9.23;7.00;;;;;;;;;;745606;185;889244;-81
2023/08/05 04:40:09;;;;;;;8.53;6.43;;;;;;;;;;753181;184;615247;-79
2023/08/05 04:42:35;;;;;;;13.20;7.60;;;;;;;;;;739704;185;1912523;-81
2023/08/05 04:45:01;;;;;;;9.77;5.53;;;;;;;;;;748217;185;1150309;-78
2023/08/05 04:47:27;;;;;;;12.33;6.33;;;;;;;;;;756807;185;639081;-80
2023/08/05 04:49:53;;;;;;;9.97;5.63;;;;;;;;;;747005;185;628295;-80
2023/08/05 04:52:19;;;;;;;11.13;7.13;;;;;;;;;;742464;185;707563;-82
2023/08/05 04:54:45;;;;;;;15.53;7.53;;;;;;;;;;748711;185;629542;-82
2023/08/05 04:57:11;;;;;;;9.67;6.50;;;;;;;;;;751655;187;668105;-79
2023/08/05 04:59:37;;;;;;;13.43;6.33;;;;;;;;;;752831;184;619828;-81
2023/08/05 05:02:03;;;;;;;10.03;6.67;;;;;;;;;;746817;186;618574;-82
2023/08/05 05:04:28;;;;;;;10.00;6.80;;;;;;;;;;757321;185;624273;-84
2023/08/05 05:06:54;;;;;;;13.33;7.93;;;;;;;;;;747992;185;627726;-82
2023/08/05 05:09:20;;;;;;;9.03;6.83;;;;;;;;;;744665;185;627590;-82
2023/08/05 05:11:46;;;;;;;10.93;6.70;;;;;;;;;;751119;186;625963;-83
2023/08/05 05:14:12;;;;;;;9.70;6.67;;;;;;;;;;746281;185;650513;-83
2023/08/05 05:16:38;;;;;;;20.57;9.90;;;;;;;;;;746804;185;645937;-82
2023/08/05 05:19:04;;;;;;;8.90;7.60;;;;;;;;;;749652;185;640581;-82
2023/08/05 05:21:31;;;;;;;12.70;8.17;;;;;;;;;;753689;185;634938;-81
2023/08/05 05:23:57;;;;;;;11.80;7.60;;;;;;;;;;751462;185;678477;-81
2023/08/05 05:26:23;;;;;;;11.53;7.73;;;;;;;;;;749348;184;1191534;-83
2023/08/05 05:28:48;;;;;;;13.33;7.00;;;;;;;;;;749711;184;776827;-85
2023/08/05 05:31:14;;;;;;;7.93;6.70;;;;;;;;;;744186;185;682810;-86
2023/08/05 05:33:40;;;;;;;10.27;7.75;;;;;;;;;;745467;185;710470;-84
2023/08/05 05:36:06;;;;;;;11.97;9.67;;;;;;;;;;756072;186;644042;-85
2023/08/05 05:38:32;;;;;;;11.60;6.83;;;;;;;;;;748923;185;911238;-84
2023/08/05 05:40:58;;;;;;;18.50;8.60;;;;;;;;;;757418;185;654531;-82
2023/08/05 05:43:24;;;;;;;11.07;7.50;;;;;;;;;;742116;184;637260;-85
2023/08/05 05:45:51;;;;;;;14.40;10.70;;;;;;;;;;739818;189;615965;-82
2023/08/05 05:48:18;;;;;;;15.43;9.70;;;;;;;;;;745941;184;636730;-83
2023/08/05 05:50:44;;;;;;;18.87;8.80;;;;;;;;;;751149;184;665101;-84
2023/08/05 05:53:13;;;;;;;11.17;8.20;;;;;;;;;;756759;180;834142;-82
2023/08/05 05:55:36;;;;;;;17.27;9.30;;;;;;;;;;758235;180;643754;-84
2023/08/05 05:58:02;;;;;;;11.80;8.90;;;;;;;;;;755000;185;672693;-84
2023/08/05 06:00:28;;;;;;;11.97;9.37;;;;;;;;;;752478;185;632607;-81
2023/08/05 06:02:56;;;;;;;11.80;10.23;;;;;;;;;;747359;185;1038220;-81
2023/08/05 06:05:22;;;;;;;14.03;10.77;;;;;;;;;;751908;185;715852;-81
2023/08/05 06:07:48;;;;;;;14.50;8.73;;;;;;;;;;744300;187;631192;-82
2023/08/05 06:10:15;;;;;;;13.57;9.20;;;;;;;;;;754456;185;661933;-80
2023/08/05 06:12:40;;;;;;;16.20;8.93;;;;;;;;;;745387;185;763746;-82
2023/08/05 06:15:07;;;;;;;15.60;8.70;;;;;;;;;;749111;185;638275;-82
2023/08/05 06:17:33;;;;;;;15.77;9.00;;;;;;;;;;753894;185;634749;-81
2023/08/05 06:19:58;;;;;;;13.30;7.23;;;;;;;;;;752397;185;825700;-80
2023/08/05 06:22:24;;;;;;;16.75;11.25;;;;;;;;;;754352;185;696128;-81
2023/08/05 06:24:51;;;;;;;23.40;15.93;;;;;;;;;;749591;185;1989071;-80
2023/08/05 06:27:16;;;;;;;15.13;9.63;;;;;;;;;;747214;186;653938;-82
2023/08/05 06:29:42;;;;;;;15.20;8.37;;;;;;;;;;750047;185;642669;-83
2023/08/05 06:32:08;;;;;;;14.30;8.97;;;;;;;;;;747249;185;640184;-83
2023/08/05 06:34:34;;;;;;;12.77;8.77;;;;;;;;;;748871;186;783685;-83
2023/08/05 06:36:59;;;;;;;14.90;8.90;;;;;;;;;;745833;183;859599;-83
2023/08/05 06:39:25;;;;;;;12.47;8.73;;;;;;;;;;746680;186;700707;-83
2023/08/05 06:41:51;;;;;;;10.60;7.97;;;;;;;;;;753206;185;650560;-81
2023/08/05 06:44:17;;;;;;;10.93;7.90;;;;;;;;;;747179;185;624289;-82
2023/08/05 06:46:43;;;;;;;12.05;7.35;;;;;;;;;;746155;184;1248171;-83
2023/08/05 06:49:10;;;;;;;14.37;9.33;;;;;;;;;;750522;186;722746;-82
2023/08/05 06:51:35;;;;;;;8.63;6.30;;;;;;;;;;743930;185;1241840;-82
2023/08/05 06:54:01;;;;;;;12.13;7.77;;;;;;;;;;748287;185;812990;-80
2023/08/05 06:56:27;;;;;;;11.33;7.13;;;;;;;;;;750489;185;1034220;-82
2023/08/05 06:58:53;;;;;;;8.70;6.20;;;;;;;;;;743351;187;648556;-83
2023/08/05 07:01:19;;;;;;;9.53;5.77;;;;;;;;;;746363;185;711725;-81
2023/08/05 07:03:44;;;;;;;8.60;6.00;;;;;;;;;;744099;184;1316494;-82
2023/08/05 07:06:11;;;;;;;6.30;4.00;;;;;;;;;;752518;187;635700;-80
2023/08/05 07:08:37;;;;;;;10.20;5.40;;;;;;;;;;746497;187;634283;-83
2023/08/05 07:11:03;;;;;;;7.80;5.03;;;;;;;;;;748558;185;1033545;-80
2023/08/05 07:13:29;;;;;;;6.80;4.43;;;;;;;;;;752455;185;1013780;-81
2023/08/05 07:16:00;;;;;;;7.23;4.03;;;;;;;;;;744988;185;1271099;-81
2023/08/05 07:18:26;;;;;;;5.30;4.40;;;;;;;;;;745477;183;1350340;-83
2023/08/05 07:20:52;;;;;;;6.00;4.30;;;;;;;;;;749890;185;883008;-82
2023/08/05 07:23:20;;;;;;;7.20;4.50;;;;;;;;;;751906;185;641889;-83
2023/08/05 07:25:46;;;;;;;7.23;4.20;;;;;;;;;;747771;183;860255;-83
2023/08/05 07:28:12;;;;;;;7.77;4.53;;;;;;;;;;747759;185;908195;-80
2023/08/05 07:30:38;;;;;;;12.60;4.67;;;;;;;;;;756265;185;628601;-81
2023/08/05 07:33:07;;;;;;;7.70;4.10;;;;;;;;;;748892;185;656807;-82
2023/08/05 07:35:29;;;;;;;10.40;4.20;;;;;;;;;;739363;186;1634369;-81
2023/08/05 07:37:55;;;;;;;5.23;3.73;;;;;;;;;;749143;185;625867;-84
2023/08/05 07:40:21;;;;;;;9.43;4.47;;;;;;;;;;748804;185;682469;-81
2023/08/05 07:42:48;;;;;;;5.80;4.12;;;;;;;;;;751382;185;644793;-82
2023/08/05 07:45:16;;;;;;;10.63;5.17;;;;;;;;;;757879;175;816396;-70
2023/08/05 07:47:41;;;;;;;6.13;3.67;;;;;;;;;;775069;179;903528;-63
2023/08/05 07:50:07;;;;;;;14.20;4.40;;;;;;;;;;768990;180;921572;-62
2023/08/05 07:52:33;;;;;;;6.67;4.13;;;;;;;;;;773116;180;906240;-64
2023/08/05 07:54:58;;;;;;;5.87;4.00;;;;;;;;;;784754;176;917763;-63
2023/08/05 07:57:24;;;;;;;5.73;3.87;;;;;;;;;;780225;176;830135;-70
2023/08/05 07:59:51;;;;;;;5.10;3.50;;;;;;;;;;791094;176;878759;-62
2023/08/05 08:02:16;;;;;;;7.57;4.00;;;;;;;;;;782363;176;816104;-63
2023/08/05 08:04:42;;;;;;;5.80;3.70;;;;;;;;;;786197;176;918654;-63
2023/08/05 08:07:08;;;;;;;7.50;3.43;;;;;;;;;;782747;176;918660;-70
2023/08/05 08:09:33;;;;;;;6.60;3.93;;;;;;;;;;783820;176;919689;-62
2023/08/05 08:11:59;;;;;;;5.00;3.43;;;;;;;;;;791872;176;920725;-69
2023/08/05 08:14:25;;;;;;;5.27;3.40;;;;;;;;;;779106;176;919398;-68
2023/08/05 08:16:51;;;;;;;8.63;3.80;;;;;;;;;;791296;176;814255;-64
2023/08/05 08:19:18;;;;;;;5.33;3.40;;;;;;;;;;789009;176;880932;-63
2023/08/05 08:21:42;;;;;;;5.53;3.10;;;;;;;;;;782861;176;918358;-64
2023/08/05 08:24:08;;;;;;;8.93;3.80;;;;;;;;;;779942;176;918900;-63
2023/08/05 08:26:34;;;;;;;6.40;3.77;;;;;;;;;;785341;176;919587;-63
2023/08/05 08:29:00;;;;;;;6.70;4.30;;;;;;;;;;786417;179;909752;-71
2023/08/05 08:31:29;;;;;;;6.70;3.77;;;;;;;;;;777150;178;894602;-68
2023/08/05 08:33:52;;;;;;;5.30;3.30;;;;;;;;;;781259;176;919233;-63
2023/08/05 08:36:17;;;;;;;5.50;3.27;;;;;;;;;;789951;178;912753;-62
2023/08/05 08:38:43;;;;;;;8.63;3.27;;;;;;;;;;782525;176;915585;-62
2023/08/05 08:41:09;;;;;;;4.97;3.20;;;;;;;;;;779997;176;916817;-63
2023/08/05 08:43:35;;;;;;;5.80;3.50;;;;;;;;;;788387;176;916306;-69
2023/08/05 08:46:01;;;;;;;6.10;3.60;;;;;;;;;;772989;177;918879;-70
2023/08/05 08:48:27;;;;;;;6.47;3.30;;;;;;;;;;792013;176;915926;-62
2023/08/05 08:50:53;;;;;;;4.45;3.47;;;;;;;;;;787661;176;814839;-62
2023/08/05 08:53:19;;;;;;;6.60;4.20;;;;;;;;;;781146;178;739309;-69
2023/08/05 08:55:45;;;;;;;6.20;4.80;;;;;;;;;;782085;176;916889;-62
2023/08/05 08:58:11;;;;;;;6.43;4.40;;;;;;;;;;780975;176;915909;-62
2023/08/05 09:00:37;;;;;;;6.50;4.10;;;;;;;;;;788128;176;914300;-61
2023/08/05 09:03:02;;;;;;;6.73;4.23;;;;;;;;;;780170;176;928036;-62
2023/08/05 09:05:28;;;;;;;7.57;4.32;;;;;;;;;;788752;176;827949;-62
2023/08/05 09:07:54;;;;;;;8.73;4.90;;;;;;;;;;784937;176;913669;-70
2023/08/05 09:10:22;;;;;;;12.77;6.90;;;;;;;;;;781166;176;950023;-69
2023/08/05 09:12:46;;;;;;;15.20;6.40;;;;;;;;;;781179;176;910609;-62
2023/08/05 09:15:12;;;;;;;7.37;5.67;;;;;;;;;;784833;176;930452;-70
2023/08/05 09:17:38;;;;;;;7.87;5.77;;;;;;;;;;781354;176;909360;-61
2023/08/05 09:20:04;;;;;;;9.03;5.23;;;;;;;;;;779568;176;926501;-70
2023/08/05 09:22:29;;;;;;;9.53;5.63;;;;;;;;;;781417;178;827225;-71
2023/08/05 09:25:00;;;;;;;7.30;4.67;;;;;;;;;;787493;176;813058;-62
2023/08/05 09:27:26;;;;;;;11.00;6.20;;;;;;;;;;787682;176;917070;-71
2023/08/05 09:29:52;;;;;;;9.03;6.20;;;;;;;;;;788836;176;808632;-63
2023/08/05 09:32:17;;;;;;;10.63;7.33;;;;;;;;;;779016;179;918303;-62
2023/08/05 09:34:49;;;;;;;12.03;6.00;;;;;;;;;;785271;176;921661;-62
2023/08/05 09:37:13;;;;;;;7.40;5.83;;;;;;;;;;781268;177;917318;-67
2023/08/05 09:39:44;;;;;;;11.07;7.20;;;;;;;;;;783075;176;916806;-68
2023/08/05 09:42:07;;;;;;;7.83;6.80;;;;;;;;;;772031;179;917334;-61
2023/08/05 09:44:34;;;;;;;11.43;7.57;;;;;;;;;;771035;179;963322;-70
2023/08/05 09:46:59;;;;;;;10.70;7.80;;;;;;;;;;779509;176;913071;-62
2023/08/05 09:49:25;;;;;;;8.50;6.83;;;;;;;;;;783788;176;917461;-71
2023/08/05 09:51:51;;;;;;;9.90;7.97;;;;;;;;;;777952;177;919149;-64
2023/08/05 09:54:16;;;;;;;10.07;8.23;;;;;;;;;;781342;176;910163;-71
2023/08/05 09:56:43;;;;;;;14.10;7.80;;;;;;;;;;785070;176;894142;-70
2023/08/05 09:59:08;;;;;;;11.00;7.50;;;;;;;;;;783328;176;919556;-70
2023/08/05 10:01:34;;;;;;;8.17;7.33;;;;;;;;;;783954;176;818156;-63
2023/08/05 10:04:01;;;;;;;9.07;8.17;;;;;;;;;;780810;176;918247;-71
2023/08/05 10:06:26;;;;;;;15.33;9.07;;;;;;;;;;786271;176;921546;-62
2023/08/05 10:08:52;;;;;;;12.43;8.60;;;;;;;;;;781800;176;919168;-62
2023/08/05 10:11:19;;;;;;;9.90;7.07;;;;;;;;;;781136;176;917149;-61
2023/08/05 10:13:44;;;;;;;16.33;7.90;;;;;;;;;;787749;176;707503;-62
2023/08/05 10:16:09;;;;;;;10.90;6.60;;;;;;;;;;779410;176;921397;-63
2023/08/05 10:18:35;;;;;;;10.20;8.50;;;;;;;;;;781041;176;819200;-71
2023/08/05 10:21:05;;;;;;;13.27;9.65;;;;;;;;;;784608;176;916489;-69
2023/08/05 10:23:28;;;;;;;11.67;8.70;;;;;;;;;;780631;176;906191;-73
2023/08/05 10:26:01;;;;;;;11.57;9.63;;;;;;;;;;785661;176;914950;-62
2023/08/05 10:28:43;;;;;;;12.77;8.60;;;;;;;;;;770150;179;919974;-62
2023/08/05 10:31:23;;;;;;;10.35;7.87;;;;;;;;;;781210;176;917036;-64
2023/08/05 10:33:55;;;;;;;10.20;7.60;;;;;;;;;;758688;183;815568;-63
2023/08/05 10:36:21;;;;;;;14.38;9.60;;;;;;;;;;785735;176;816376;-66
2023/08/05 10:38:47;;;;;;;10.97;8.20;;;;;;;;;;769443;179;918514;-74
2023/08/05 10:41:13;;;;;;;10.57;7.70;;;;;;;;;;777239;176;919837;-64
2023/08/05 10:43:40;;;;;;;15.23;8.43;;;;;;;;;;782617;176;922186;-72
2023/08/05 10:46:12;;;;;;;13.57;8.17;;;;;;;;;;792247;176;887811;-73
2023/08/05 10:48:38;;;;;;;13.97;9.13;;;;;;;;;;771049;179;918835;-71
2023/08/05 10:51:07;;;;;;;13.87;8.60;;;;;;;;;;784928;176;814250;-73
2023/08/05 10:53:33;;;;;;;9.20;7.63;;;;;;;;;;781574;176;917735;-71
2023/08/05 10:55:59;;;;;;;13.80;8.47;;;;;;;;;;788998;176;903012;-75
2023/08/05 10:58:24;;;;;;;13.10;8.17;;;;;;;;;;785404;176;836919;-72
2023/08/05 11:00:55;;;;;;;11.20;8.20;;;;;;;;;;782438;176;919345;-64
2023/08/05 11:03:21;;;;;;;21.83;8.40;;;;;;;;;;786366;176;814340;-64
2023/08/05 11:05:47;;;;;;;19.77;9.40;;;;;;;;;;781193;176;919207;-64
2023/08/05 11:08:13;;;;;;;14.40;10.70;;;;;;;;;;780100;176;925837;-73
2023/08/05 11:10:39;;;;;;;13.20;9.07;;;;;;;;;;781031;176;919867;-74
2023/08/05 11:13:04;;;;;;;11.90;8.30;;;;;;;;;;770656;179;906883;-74
2023/08/05 11:15:30;;;;;;;15.53;8.40;;;;;;;;;;774484;180;918809;-65
2023/08/05 11:17:56;;;;;;;9.83;8.60;;;;;;;;;;780236;176;815066;-62
2023/08/05 11:20:22;;;;;;;11.30;8.50;;;;;;;;;;783412;176;913283;-71
2023/08/05 11:22:48;;;;;;;12.63;8.63;;;;;;;;;;784418;176;632114;-74
2023/08/05 11:25:14;;;;;;;8.83;6.63;;;;;;;;;;785598;176;632245;-72
2023/08/05 11:27:39;;;;;;;9.93;6.60;;;;;;;;;;789432;176;622318;-73
2023/08/05 11:30:11;;;;;;;15.30;7.55;;;;;;;;;;785136;176;810891;-73
2023/08/05 11:32:43;;;;;;;9.10;7.60;;;;;;;;;;786019;176;817365;-73
2023/08/05 11:35:09;;;;;;;9.93;6.30;;;;;;;;;;781490;176;919254;-72
2023/08/05 11:37:36;;;;;;;8.23;6.87;;;;;;;;;;787111;176;857726;-65
2023/08/05 11:40:02;;;;;;;10.63;7.33;;;;;;;;;;783784;176;815899;-72
2023/08/05 11:42:27;;;;;;;15.50;7.23;;;;;;;;;;779137;176;847925;-72
2023/08/05 11:44:53;;;;;;;10.77;6.90;;;;;;;;;;781044;176;912457;-64
2023/08/05 11:47:19;;;;;;;9.65;7.32;;;;;;;;;;784416;176;916150;-72
2023/08/05 11:49:51;;;;;;;10.70;7.50;;;;;;;;;;786683;176;629763;-70
2023/08/05 11:52:17;;;;;;;9.63;7.00;;;;;;;;;;790416;176;620261;-72
2023/08/05 11:54:44;;;;;;;10.10;7.27;;;;;;;;;;795212;176;629569;-73
2023/08/05 11:57:14;;;;;;;13.70;7.77;;;;;;;;;;789289;176;621682;-73
2023/08/05 11:59:43;;;;;;;9.70;6.57;;;;;;;;;;784514;178;627781;-72
2023/08/05 12:02:10;;;;;;;10.93;7.25;;;;;;;;;;782712;176;919379;-70
2023/08/05 12:04:40;;;;;;;11.00;7.30;;;;;;;;;;790284;176;621060;-72
2023/08/05 12:07:06;;;;;;;10.93;6.90;;;;;;;;;;786960;176;627238;-72
2023/08/05 12:09:32;;;;;;;10.70;7.87;;;;;;;;;;786994;176;639789;-74
2023/08/05 12:11:58;;;;;;;9.10;7.63;;;;;;;;;;787317;176;632216;-65
2023/08/05 12:14:24;;;;;;;11.93;7.20;;;;;;;;;;788162;176;626774;-74
2023/08/05 12:16:52;;;;;;;13.13;7.97;;;;;;;;;;786815;176;639359;-74
2023/08/05 12:19:16;;;;;;;11.60;7.63;;;;;;;;;;786118;176;812324;-64
2023/08/05 12:21:41;;;;;;;12.90;7.67;;;;;;;;;;788265;178;915410;-64
2023/08/05 12:24:07;;;;;;;8.80;6.17;;;;;;;;;;784927;176;914036;-73
2023/08/05 12:26:33;;;;;;;11.40;6.05;;;;;;;;;;783778;178;918277;-74
2023/08/05 12:28:59;;;;;;;8.57;6.87;;;;;;;;;;789481;176;919149;-64
2023/08/05 12:31:25;;;;;;;10.17;6.57;;;;;;;;;;781293;176;938535;-71
2023/08/05 12:33:50;;;;;;;10.20;7.35;;;;;;;;;;781160;178;862741;-75
2023/08/05 12:36:16;;;;;;;10.70;7.20;;;;;;;;;;784836;178;916484;-64
2023/08/05 12:38:42;;;;;;;10.57;9.20;;;;;;;;;;776902;180;909515;-72
2023/08/05 12:41:08;;;;;;;10.40;6.97;;;;;;;;;;772477;180;909725;-71
2023/08/05 12:43:34;;;;;;;10.33;7.20;;;;;;;;;;772399;180;897587;-70
2023/08/05 12:46:00;;;;;;;17.10;8.40;;;;;;;;;;787370;176;916911;-64
2023/08/05 12:48:26;;;;;;;10.77;7.70;;;;;;;;;;781216;176;921807;-71
2023/08/05 12:50:51;;;;;;;13.52;8.48;;;;;;;;;;781466;176;1014275;-65
2023/08/05 12:53:17;;;;;;;11.27;7.37;;;;;;;;;;792094;176;892380;-71
2023/08/05 12:55:43;;;;;;;11.53;6.83;;;;;;;;;;791187;176;914536;-63
2023/08/05 12:58:09;;;;;;;13.47;7.27;;;;;;;;;;779629;176;921724;-71
2023/08/05 13:00:35;;;;;;;14.10;7.20;;;;;;;;;;786616;176;917821;-71
2023/08/05 13:03:01;;;;;;;8.50;6.00;;;;;;;;;;788833;175;889012;-65
2023/08/05 13:05:26;;;;;;;10.17;6.70;;;;;;;;;;780048;176;913940;-63
2023/08/05 13:07:52;;;;;;;15.60;8.23;;;;;;;;;;781471;178;921580;-64
2023/08/05 13:10:18;;;;;;;10.17;6.70;;;;;;;;;;787306;176;917653;-70
2023/08/05 13:12:44;;;;;;;12.83;7.67;;;;;;;;;;785443;176;920583;-71
2023/08/05 13:15:10;;;;;;;10.80;7.60;;;;;;;;;;785795;176;919344;-64
2023/08/05 13:17:36;;;;;;;13.43;8.33;;;;;;;;;;784521;178;820697;-64
2023/08/05 13:20:02;;;;;;;12.83;7.57;;;;;;;;;;784747;176;820703;-63
2023/08/05 13:22:28;;;;;;;10.60;7.73;;;;;;;;;;784575;176;916374;-70
2023/08/05 13:24:54;;;;;;;10.13;6.70;;;;;;;;;;785894;176;920722;-69
2023/08/05 13:27:21;;;;;;;13.77;7.65;;;;;;;;;;782655;176;921836;-73
2023/08/05 13:29:45;;;;;;;9.60;8.00;;;;;;;;;;781389;176;919477;-65
2023/08/05 13:32:11;;;;;;;12.53;7.57;;;;;;;;;;781758;178;917865;-65
2023/08/05 13:34:37;;;;;;;11.40;8.13;;;;;;;;;;785786;176;919873;-65
2023/08/05 13:37:02;;;;;;;8.80;6.17;;;;;;;;;;780147;176;946839;-71
2023/08/05 13:39:28;;;;;;;13.20;6.50;;;;;;;;;;781998;176;899649;-71
2023/08/05 13:41:58;;;;;;;10.70;6.77;;;;;;;;;;789157;176;920487;-64
2023/08/05 13:44:20;;;;;;;9.20;5.97;;;;;;;;;;789092;176;916438;-65
2023/08/05 13:46:46;;;;;;;10.03;6.60;;;;;;;;;;790084;176;845696;-71
2023/08/05 13:49:12;;;;;;;9.00;6.10;;;;;;;;;;782886;176;871984;-63
2023/08/05 13:51:38;;;;;;;8.67;5.83;;;;;;;;;;786934;176;919210;-65
2023/08/05 13:54:03;;;;;;;8.07;5.20;;;;;;;;;;783332;176;919521;-65
2023/08/05 13:56:29;;;;;;;9.43;5.27;;;;;;;;;;779397;178;918719;-66
2023/08/05 13:58:55;;;;;;;10.57;8.27;;;;;;;;;;784560;176;918980;-70
2023/08/05 14:01:21;;;;;;;8.40;4.30;;;;;;;;;;779224;178;919634;-63
2023/08/05 14:03:47;;;;;;;6.57;4.40;;;;;;;;;;783686;176;918997;-65
2023/08/05 14:06:13;;;;;;;9.53;4.13;;;;;;;;;;789995;176;924279;-70
2023/08/05 14:08:38;;;;;;;8.23;4.60;;;;;;;;;;780275;178;941092;-72
2023/08/05 14:11:04;;;;;;;11.43;3.72;;;;;;;;;;781366;176;918267;-71
2023/08/05 14:13:30;;;;;;;4.83;4.10;;;;;;;;;;788137;176;919763;-63
2023/08/05 14:15:56;;;;;;;6.17;4.57;;;;;;;;;;784145;176;923060;-64
2023/08/05 14:18:22;;;;;;;5.63;4.80;;;;;;;;;;780349;176;950082;-72
2023/08/05 14:20:48;;;;;;;6.03;4.47;;;;;;;;;;782369;176;920772;-70
2023/08/05 14:23:14;;;;;;;5.17;3.90;;;;;;;;;;789119;176;922492;-70
2023/08/05 14:25:39;;;;;;;7.67;3.63;;;;;;;;;;775155;179;920251;-71
2023/08/05 14:28:05;;;;;;;4.87;3.53;;;;;;;;;;786537;176;914522;-72
2023/08/05 14:30:31;;;;;;;6.03;4.00;;;;;;;;;;787551;176;917606;-71
2023/08/05 14:32:57;;;;;;;4.00;3.20;;;;;;;;;;784088;176;917455;-64
2023/08/05 14:35:23;;;;;;;4.72;3.47;;;;;;;;;;779624;176;919648;-70
2023/08/05 14:37:49;;;;;;;5.63;3.50;;;;;;;;;;789086;176;918425;-70
2023/08/05 14:40:14;;;;;;;7.47;3.40;;;;;;;;;;780254;176;919354;-70
2023/08/05 14:42:41;;;;;;;4.40;3.10;;;;;;;;;;784531;176;919144;-69
2023/08/05 14:45:07;;;;;;;5.70;4.53;;;;;;;;;;793800;176;817108;-65
2023/08/05 14:47:32;;;;;;;3.63;3.20;;;;;;;;;;779970;176;906345;-63
2023/08/05 14:49:58;;;;;;;4.13;3.60;;;;;;;;;;781088;176;919036;-70
2023/08/05 14:52:24;;;;;;;6.23;3.37;;;;;;;;;;779879;178;921546;-71
2023/08/05 14:54:50;;;;;;;3.43;2.70;;;;;;;;;;789324;176;921978;-71
2023/08/05 14:57:16;;;;;;;4.60;3.10;;;;;;;;;;781666;176;917675;-73
2023/08/05 14:59:42;;;;;;;5.17;3.33;;;;;;;;;;782518;176;920817;-73
2023/08/05 15:02:07;;;;;;;4.60;2.80;;;;;;;;;;784083;179;922000;-70
2023/08/05 15:04:33;;;;;;;5.43;3.27;;;;;;;;;;779084;176;918707;-65
2023/08/05 15:06:59;;;;;;;4.00;3.60;;;;;;;;;;779843;176;919416;-71
2023/08/05 15:09:25;;;;;;;4.83;3.40;;;;;;;;;;789173;176;916802;-64
2023/08/05 15:11:51;;;;;;;4.03;3.37;;;;;;;;;;782378;176;919008;-65
2023/08/05 15:14:17;;;;;;;3.22;2.80;;;;;;;;;;780648;176;920664;-64
2023/08/05 15:16:43;;;;;;;3.33;2.93;;;;;;;;;;780416;176;921026;-72
2023/08/05 15:19:08;;;;;;;3.80;2.50;;;;;;;;;;779473;176;924055;-65
2023/08/05 15:21:34;;;;;;;4.80;3.07;;;;;;;;;;777076;178;921393;-72
2023/08/05 15:24:00;;;;;;;3.80;3.10;;;;;;;;;;784840;176;919895;-72
2023/08/05 15:26:26;;;;;;;6.40;3.07;;;;;;;;;;790974;176;816225;-72
2023/08/05 15:28:52;;;;;;;5.77;3.10;;;;;;;;;;780732;176;815861;-65
2023/08/05 15:31:18;;;;;;;5.90;3.00;;;;;;;;;;782679;177;911872;-72
2023/08/05 15:33:43;;;;;;;4.57;2.93;;;;;;;;;;787797;178;816725;-64
2023/08/05 15:36:13;;;;;;;4.80;2.53;;;;;;;;;;785180;176;918662;-65
2023/08/05 15:38:38;;;;;;;3.00;2.13;;;;;;;;;;786830;178;919134;-65
2023/08/05 15:41:04;;;;;;;3.50;2.67;;;;;;;;;;764484;181;915109;-72
2023/08/05 15:43:30;;;;;;;3.23;2.50;;;;;;;;;;787814;176;913783;-66
2023/08/05 15:45:56;;;;;;;4.10;2.43;;;;;;;;;;781655;176;916464;-72
2023/08/05 15:48:21;;;;;;;4.30;2.80;;;;;;;;;;783234;179;886963;-65
2023/08/05 15:50:47;;;;;;;4.27;2.93;;;;;;;;;;789029;176;919018;-66
2023/08/05 15:53:13;;;;;;;4.03;2.83;;;;;;;;;;782430;176;919388;-64
2023/08/05 15:55:39;;;;;;;4.30;2.20;;;;;;;;;;782417;178;919648;-65